sensor_id;sensor_type;location;lat;lon;timestamp;P1;durP1;ratioP1;P2;durP2;ratioP2
6626;SDS011;3349;49.830;8.748;2022-09-28T00:00:35;3.55;;;2.20;;
6626;SDS011;3349;49.830;8.748;2022-09-28T00:03:05;6.28;;;2.65;;
6626;SDS011;3349;49.830;8.748;2022-09-28T00:05:31;3.38;;;2.42;;
6626;SDS011;3349;49.830;8.748;2022-09-28T00:07:58;4.20;;;2.75;;
6626;SDS011;3349;49.830;8.748;2022-09-28T00:10:25;3.65;;;2.65;;
6626;SDS011;3349;49.830;8.748;2022-09-28T00:12:52;3.85;;;2.70;;
6626;SDS011;3349;49.830;8.748;2022-09-28T00:15:19;5.90;;;2.67;;
6626;SDS011;3349;49.830;8.748;2022-09-28T00:17:46;3.35;;;2.15;;
6626;SDS011;3349;49.830;8.748;2022-09-28T00:20:14;4.00;;;2.30;;
6626;SDS011;3349;49.830;8.748;2022-09-28T00:22:42;3.35;;;2.13;;
6626;SDS011;3349;49.830;8.748;2022-09-28T00:25:08;3.53;;;2.20;;
6626;SDS011;3349;49.830;8.748;2022-09-28T00:27:35;3.88;;;2.30;;
6626;SDS011;3349;49.830;8.748;2022-09-28T00:30:02;1.75;;;1.63;;
6626;SDS011;3349;49.830;8.748;2022-09-28T00:32:29;1.73;;;1.60;;
6626;SDS011;3349;49.830;8.748;2022-09-28T00:34:56;1.95;;;1.67;;
6626;SDS011;3349;49.830;8.748;2022-09-28T00:37:24;2.78;;;1.67;;
6626;SDS011;3349;49.830;8.748;2022-09-28T00:39:50;2.67;;;1.60;;
6626;SDS011;3349;49.830;8.748;2022-09-28T00:42:18;2.75;;;1.60;;
6626;SDS011;3349;49.830;8.748;2022-09-28T00:44:47;1.88;;;1.40;;
6626;SDS011;3349;49.830;8.748;2022-09-28T00:47:16;3.45;;;1.80;;
6626;SDS011;3349;49.830;8.748;2022-09-28T00:49:47;4.03;;;1.70;;
6626;SDS011;3349;49.830;8.748;2022-09-28T00:52:17;2.67;;;2.00;;
6626;SDS011;3349;49.830;8.748;2022-09-28T00:54:48;3.17;;;1.75;;
6626;SDS011;3349;49.830;8.748;2022-09-28T00:57:18;2.95;;;1.90;;
6626;SDS011;3349;49.830;8.748;2022-09-28T00:59:46;2.80;;;1.88;;
6626;SDS011;3349;49.830;8.748;2022-09-28T01:02:14;4.50;;;1.92;;
6626;SDS011;3349;49.830;8.748;2022-09-28T01:04:41;2.22;;;1.50;;
6626;SDS011;3349;49.830;8.748;2022-09-28T01:07:07;2.40;;;2.03;;
6626;SDS011;3349;49.830;8.748;2022-09-28T01:09:35;4.32;;;2.00;;
6626;SDS011;3349;49.830;8.748;2022-09-28T01:12:06;3.20;;;1.95;;
6626;SDS011;3349;49.830;8.748;2022-09-28T01:14:33;3.50;;;1.83;;
6626;SDS011;3349;49.830;8.748;2022-09-28T01:17:02;2.70;;;1.92;;
6626;SDS011;3349;49.830;8.748;2022-09-28T01:19:36;2.00;;;1.80;;
6626;SDS011;3349;49.830;8.748;2022-09-28T01:22:30;1.83;;;1.67;;
6626;SDS011;3349;49.830;8.748;2022-09-28T01:25:21;2.88;;;1.90;;
6626;SDS011;3349;49.830;8.748;2022-09-28T01:27:55;2.47;;;1.75;;
6626;SDS011;3349;49.830;8.748;2022-09-28T01:30:28;2.67;;;1.50;;
6626;SDS011;3349;49.830;8.748;2022-09-28T01:33:04;4.63;;;1.95;;
6626;SDS011;3349;49.830;8.748;2022-09-28T01:35:34;2.97;;;1.73;;
6626;SDS011;3349;49.830;8.748;2022-09-28T01:38:06;3.05;;;2.00;;
6626;SDS011;3349;49.830;8.748;2022-09-28T01:40:38;2.90;;;2.00;;
6626;SDS011;3349;49.830;8.748;2022-09-28T01:43:08;2.20;;;1.70;;
6626;SDS011;3349;49.830;8.748;2022-09-28T01:45:39;3.83;;;1.95;;
6626;SDS011;3349;49.830;8.748;2022-09-28T01:48:10;2.97;;;1.95;;
6626;SDS011;3349;49.830;8.748;2022-09-28T01:50:41;4.60;;;1.80;;
6626;SDS011;3349;49.830;8.748;2022-09-28T01:53:12;1.92;;;1.75;;
6626;SDS011;3349;49.830;8.748;2022-09-28T01:55:44;2.22;;;1.80;;
6626;SDS011;3349;49.830;8.748;2022-09-28T01:58:16;2.65;;;1.60;;
6626;SDS011;3349;49.830;8.748;2022-09-28T02:00:48;2.17;;;1.80;;
6626;SDS011;3349;49.830;8.748;2022-09-28T02:03:22;2.80;;;1.70;;
6626;SDS011;3349;49.830;8.748;2022-09-28T02:05:52;2.90;;;1.63;;
6626;SDS011;3349;49.830;8.748;2022-09-28T02:08:24;2.13;;;1.60;;
6626;SDS011;3349;49.830;8.748;2022-09-28T02:10:56;2.80;;;1.50;;
6626;SDS011;3349;49.830;8.748;2022-09-28T02:13:28;2.42;;;1.40;;
6626;SDS011;3349;49.830;8.748;2022-09-28T02:16:01;3.10;;;1.55;;
6626;SDS011;3349;49.830;8.748;2022-09-28T02:18:34;2.30;;;1.63;;
6626;SDS011;3349;49.830;8.748;2022-09-28T02:21:03;2.72;;;1.40;;
6626;SDS011;3349;49.830;8.748;2022-09-28T02:23:34;1.88;;;1.58;;
6626;SDS011;3349;49.830;8.748;2022-09-28T02:26:05;1.50;;;1.40;;
6626;SDS011;3349;49.830;8.748;2022-09-28T02:28:38;3.05;;;1.70;;
6626;SDS011;3349;49.830;8.748;2022-09-28T02:31:05;2.13;;;1.58;;
6626;SDS011;3349;49.830;8.748;2022-09-28T02:33:33;2.25;;;1.90;;
6626;SDS011;3349;49.830;8.748;2022-09-28T02:36:02;2.13;;;1.70;;
6626;SDS011;3349;49.830;8.748;2022-09-28T02:38:30;3.22;;;1.83;;
6626;SDS011;3349;49.830;8.748;2022-09-28T02:41:01;3.78;;;1.58;;
6626;SDS011;3349;49.830;8.748;2022-09-28T02:43:33;1.60;;;1.20;;
6626;SDS011;3349;49.830;8.748;2022-09-28T02:46:13;2.15;;;1.60;;
6626;SDS011;3349;49.830;8.748;2022-09-28T02:48:52;3.58;;;1.40;;
6626;SDS011;3349;49.830;8.748;2022-09-28T02:51:32;5.18;;;1.80;;
6626;SDS011;3349;49.830;8.748;2022-09-28T02:57:08;3.42;;;1.40;;
6626;SDS011;3349;49.830;8.748;2022-09-28T02:59:45;2.28;;;1.30;;
6626;SDS011;3349;49.830;8.748;2022-09-28T03:02:25;1.95;;;1.40;;
6626;SDS011;3349;49.830;8.748;2022-09-28T03:05:01;2.63;;;1.38;;
6626;SDS011;3349;49.830;8.748;2022-09-28T03:07:36;2.22;;;1.30;;
6626;SDS011;3349;49.830;8.748;2022-09-28T03:10:07;4.18;;;1.50;;
6626;SDS011;3349;49.830;8.748;2022-09-28T03:12:38;3.28;;;1.52;;
6626;SDS011;3349;49.830;8.748;2022-09-28T03:15:10;2.88;;;1.42;;
6626;SDS011;3349;49.830;8.748;2022-09-28T03:17:39;2.90;;;1.80;;
6626;SDS011;3349;49.830;8.748;2022-09-28T03:20:05;3.45;;;1.80;;
6626;SDS011;3349;49.830;8.748;2022-09-28T03:22:35;3.30;;;1.70;;
6626;SDS011;3349;49.830;8.748;2022-09-28T03:25:02;3.17;;;1.63;;
6626;SDS011;3349;49.830;8.748;2022-09-28T03:27:29;2.92;;;1.70;;
6626;SDS011;3349;49.830;8.748;2022-09-28T03:29:56;2.58;;;1.80;;
6626;SDS011;3349;49.830;8.748;2022-09-28T03:32:24;1.98;;;1.48;;
6626;SDS011;3349;49.830;8.748;2022-09-28T03:34:51;3.22;;;2.03;;
6626;SDS011;3349;49.830;8.748;2022-09-28T03:37:17;3.53;;;1.90;;
6626;SDS011;3349;49.830;8.748;2022-09-28T03:39:44;2.55;;;1.70;;
6626;SDS011;3349;49.830;8.748;2022-09-28T03:42:11;2.75;;;1.75;;
6626;SDS011;3349;49.830;8.748;2022-09-28T03:44:38;4.78;;;1.88;;
6626;SDS011;3349;49.830;8.748;2022-09-28T03:47:05;4.25;;;1.67;;
6626;SDS011;3349;49.830;8.748;2022-09-28T03:49:34;2.45;;;1.75;;
6626;SDS011;3349;49.830;8.748;2022-09-28T03:52:01;5.57;;;2.05;;
6626;SDS011;3349;49.830;8.748;2022-09-28T03:54:27;4.57;;;2.20;;
6626;SDS011;3349;49.830;8.748;2022-09-28T03:56:54;2.70;;;2.50;;
6626;SDS011;3349;49.830;8.748;2022-09-28T03:59:21;4.55;;;2.30;;
6626;SDS011;3349;49.830;8.748;2022-09-28T04:01:48;4.65;;;2.65;;
6626;SDS011;3349;49.830;8.748;2022-09-28T04:04:15;3.67;;;2.22;;
6626;SDS011;3349;49.830;8.748;2022-09-28T04:06:43;3.55;;;1.90;;
6626;SDS011;3349;49.830;8.748;2022-09-28T04:09:10;2.65;;;1.85;;
6626;SDS011;3349;49.830;8.748;2022-09-28T04:11:36;2.35;;;1.52;;
6626;SDS011;3349;49.830;8.748;2022-09-28T04:14:03;1.85;;;1.63;;
6626;SDS011;3349;49.830;8.748;2022-09-28T04:16:30;4.50;;;1.85;;
6626;SDS011;3349;49.830;8.748;2022-09-28T04:18:57;2.53;;;1.60;;
6626;SDS011;3349;49.830;8.748;2022-09-28T04:21:24;3.75;;;1.50;;
6626;SDS011;3349;49.830;8.748;2022-09-28T04:23:52;1.80;;;1.30;;
6626;SDS011;3349;49.830;8.748;2022-09-28T04:26:20;3.85;;;1.73;;
6626;SDS011;3349;49.830;8.748;2022-09-28T04:28:48;2.95;;;1.73;;
6626;SDS011;3349;49.830;8.748;2022-09-28T04:31:36;1.77;;;1.50;;
6626;SDS011;3349;49.830;8.748;2022-09-28T04:34:03;3.05;;;1.40;;
6626;SDS011;3349;49.830;8.748;2022-09-28T04:36:30;2.35;;;1.30;;
6626;SDS011;3349;49.830;8.748;2022-09-28T04:38:58;1.60;;;1.13;;
6626;SDS011;3349;49.830;8.748;2022-09-28T04:41:25;1.70;;;1.30;;
6626;SDS011;3349;49.830;8.748;2022-09-28T04:43:51;1.65;;;1.27;;
6626;SDS011;3349;49.830;8.748;2022-09-28T04:46:18;2.13;;;1.45;;
6626;SDS011;3349;49.830;8.748;2022-09-28T04:48:45;2.42;;;1.48;;
6626;SDS011;3349;49.830;8.748;2022-09-28T04:51:13;2.08;;;1.60;;
6626;SDS011;3349;49.830;8.748;2022-09-28T04:53:40;2.92;;;1.95;;
6626;SDS011;3349;49.830;8.748;2022-09-28T04:56:09;1.60;;;1.50;;
6626;SDS011;3349;49.830;8.748;2022-09-28T04:58:37;3.45;;;1.90;;
6626;SDS011;3349;49.830;8.748;2022-09-28T05:01:05;3.95;;;2.20;;
6626;SDS011;3349;49.830;8.748;2022-09-28T05:03:34;1.88;;;1.77;;
6626;SDS011;3349;49.830;8.748;2022-09-28T05:06:01;2.67;;;2.10;;
6626;SDS011;3349;49.830;8.748;2022-09-28T05:08:29;3.75;;;1.85;;
6626;SDS011;3349;49.830;8.748;2022-09-28T05:10:56;3.55;;;2.25;;
6626;SDS011;3349;49.830;8.748;2022-09-28T05:13:26;3.63;;;2.47;;
6626;SDS011;3349;49.830;8.748;2022-09-28T05:15:54;4.93;;;2.90;;
6626;SDS011;3349;49.830;8.748;2022-09-28T05:18:22;3.58;;;2.20;;
6626;SDS011;3349;49.830;8.748;2022-09-28T05:20:49;4.32;;;2.55;;
6626;SDS011;3349;49.830;8.748;2022-09-28T05:23:16;4.95;;;2.15;;
6626;SDS011;3349;49.830;8.748;2022-09-28T05:25:42;3.70;;;2.40;;
6626;SDS011;3349;49.830;8.748;2022-09-28T05:28:10;3.67;;;2.50;;
6626;SDS011;3349;49.830;8.748;2022-09-28T05:30:38;3.17;;;2.30;;
6626;SDS011;3349;49.830;8.748;2022-09-28T05:33:05;2.70;;;2.25;;
6626;SDS011;3349;49.830;8.748;2022-09-28T05:35:32;3.92;;;2.60;;
6626;SDS011;3349;49.830;8.748;2022-09-28T05:38:01;2.65;;;2.35;;
6626;SDS011;3349;49.830;8.748;2022-09-28T05:40:29;8.80;;;2.67;;
6626;SDS011;3349;49.830;8.748;2022-09-28T05:42:57;3.63;;;2.80;;
6626;SDS011;3349;49.830;8.748;2022-09-28T05:45:24;5.00;;;3.50;;
6626;SDS011;3349;49.830;8.748;2022-09-28T05:47:53;5.65;;;3.00;;
6626;SDS011;3349;49.830;8.748;2022-09-28T05:50:20;4.53;;;3.00;;
6626;SDS011;3349;49.830;8.748;2022-09-28T05:52:55;3.88;;;3.47;;
6626;SDS011;3349;49.830;8.748;2022-09-28T05:55:23;5.38;;;3.90;;
6626;SDS011;3349;49.830;8.748;2022-09-28T05:57:50;6.60;;;4.07;;
6626;SDS011;3349;49.830;8.748;2022-09-28T06:00:16;7.43;;;3.80;;
6626;SDS011;3349;49.830;8.748;2022-09-28T06:02:43;5.35;;;3.97;;
6626;SDS011;3349;49.830;8.748;2022-09-28T06:05:21;4.65;;;3.15;;
6626;SDS011;3349;49.830;8.748;2022-09-28T06:07:48;5.20;;;3.55;;
6626;SDS011;3349;49.830;8.748;2022-09-28T06:10:15;5.30;;;3.55;;
6626;SDS011;3349;49.830;8.748;2022-09-28T06:12:41;6.30;;;3.67;;
6626;SDS011;3349;49.830;8.748;2022-09-28T06:15:09;4.75;;;3.65;;
6626;SDS011;3349;49.830;8.748;2022-09-28T06:17:36;5.20;;;3.45;;
6626;SDS011;3349;49.830;8.748;2022-09-28T06:20:02;5.45;;;4.28;;
6626;SDS011;3349;49.830;8.748;2022-09-28T06:22:31;10.70;;;4.80;;
6626;SDS011;3349;49.830;8.748;2022-09-28T06:24:58;6.57;;;4.85;;
6626;SDS011;3349;49.830;8.748;2022-09-28T06:27:24;6.35;;;4.80;;
6626;SDS011;3349;49.830;8.748;2022-09-28T06:29:51;5.70;;;4.35;;
6626;SDS011;3349;49.830;8.748;2022-09-28T06:32:17;8.18;;;4.57;;
6626;SDS011;3349;49.830;8.748;2022-09-28T06:34:44;7.40;;;4.50;;
6626;SDS011;3349;49.830;8.748;2022-09-28T06:37:11;4.93;;;3.75;;
6626;SDS011;3349;49.830;8.748;2022-09-28T06:39:39;5.47;;;3.72;;
6626;SDS011;3349;49.830;8.748;2022-09-28T06:42:06;6.95;;;3.88;;
6626;SDS011;3349;49.830;8.748;2022-09-28T06:44:32;6.22;;;3.67;;
6626;SDS011;3349;49.830;8.748;2022-09-28T06:46:59;4.15;;;3.17;;
6626;SDS011;3349;49.830;8.748;2022-09-28T06:49:27;3.40;;;3.10;;
6626;SDS011;3349;49.830;8.748;2022-09-28T06:51:54;4.60;;;3.17;;
6626;SDS011;3349;49.830;8.748;2022-09-28T06:54:21;4.72;;;2.75;;
6626;SDS011;3349;49.830;8.748;2022-09-28T06:56:51;2.85;;;2.42;;
6626;SDS011;3349;49.830;8.748;2022-09-28T06:59:17;4.82;;;2.90;;
6626;SDS011;3349;49.830;8.748;2022-09-28T07:01:44;3.92;;;2.63;;
6626;SDS011;3349;49.830;8.748;2022-09-28T07:04:11;2.72;;;2.50;;
6626;SDS011;3349;49.830;8.748;2022-09-28T07:06:38;4.40;;;2.58;;
6626;SDS011;3349;49.830;8.748;2022-09-28T07:09:04;3.05;;;2.40;;
6626;SDS011;3349;49.830;8.748;2022-09-28T07:11:35;5.47;;;2.30;;
6626;SDS011;3349;49.830;8.748;2022-09-28T07:14:05;2.97;;;2.17;;
6626;SDS011;3349;49.830;8.748;2022-09-28T07:16:32;4.00;;;2.53;;
6626;SDS011;3349;49.830;8.748;2022-09-28T07:18:59;4.03;;;2.20;;
6626;SDS011;3349;49.830;8.748;2022-09-28T07:21:26;4.95;;;2.50;;
6626;SDS011;3349;49.830;8.748;2022-09-28T07:23:52;2.85;;;2.30;;
6626;SDS011;3349;49.830;8.748;2022-09-28T07:26:19;3.63;;;2.28;;
6626;SDS011;3349;49.830;8.748;2022-09-28T07:28:46;2.42;;;1.83;;
6626;SDS011;3349;49.830;8.748;2022-09-28T07:31:14;3.50;;;1.80;;
6626;SDS011;3349;49.830;8.748;2022-09-28T07:33:41;1.70;;;1.48;;
6626;SDS011;3349;49.830;8.748;2022-09-28T07:36:07;1.58;;;1.13;;
6626;SDS011;3349;49.830;8.748;2022-09-28T07:38:34;2.38;;;1.50;;
6626;SDS011;3349;49.830;8.748;2022-09-28T07:41:02;2.08;;;1.60;;
6626;SDS011;3349;49.830;8.748;2022-09-28T07:43:37;12.77;;;7.55;;
6626;SDS011;3349;49.830;8.748;2022-09-28T07:46:05;3.60;;;2.00;;
6626;SDS011;3349;49.830;8.748;2022-09-28T07:48:37;3.78;;;2.10;;
6626;SDS011;3349;49.830;8.748;2022-09-28T07:51:05;3.35;;;2.00;;
6626;SDS011;3349;49.830;8.748;2022-09-28T07:53:33;3.33;;;1.67;;
6626;SDS011;3349;49.830;8.748;2022-09-28T07:56:00;4.53;;;2.97;;
6626;SDS011;3349;49.830;8.748;2022-09-28T07:58:31;4.60;;;1.85;;
6626;SDS011;3349;49.830;8.748;2022-09-28T08:01:01;2.17;;;1.55;;
6626;SDS011;3349;49.830;8.748;2022-09-28T08:03:30;2.25;;;1.40;;
6626;SDS011;3349;49.830;8.748;2022-09-28T08:05:58;1.50;;;1.40;;
6626;SDS011;3349;49.830;8.748;2022-09-28T08:08:26;3.83;;;1.60;;
6626;SDS011;3349;49.830;8.748;2022-09-28T08:10:54;5.97;;;1.90;;
6626;SDS011;3349;49.830;8.748;2022-09-28T08:13:21;3.95;;;1.60;;
6626;SDS011;3349;49.830;8.748;2022-09-28T08:15:49;2.03;;;1.50;;
6626;SDS011;3349;49.830;8.748;2022-09-28T08:18:16;3.53;;;1.58;;
6626;SDS011;3349;49.830;8.748;2022-09-28T08:20:43;2.90;;;1.77;;
6626;SDS011;3349;49.830;8.748;2022-09-28T08:23:28;5.07;;;1.52;;
6626;SDS011;3349;49.830;8.748;2022-09-28T08:25:55;2.75;;;1.40;;
6626;SDS011;3349;49.830;8.748;2022-09-28T08:28:22;4.40;;;1.40;;
6626;SDS011;3349;49.830;8.748;2022-09-28T08:30:50;2.03;;;1.40;;
6626;SDS011;3349;49.830;8.748;2022-09-28T08:33:18;2.83;;;1.40;;
6626;SDS011;3349;49.830;8.748;2022-09-28T08:35:46;3.58;;;1.67;;
6626;SDS011;3349;49.830;8.748;2022-09-28T08:38:19;2.22;;;1.20;;
6626;SDS011;3349;49.830;8.748;2022-09-28T08:40:49;2.30;;;1.35;;
6626;SDS011;3349;49.830;8.748;2022-09-28T08:46:20;3.15;;;1.33;;
6626;SDS011;3349;49.830;8.748;2022-09-28T08:48:52;3.05;;;1.02;;
6626;SDS011;3349;49.830;8.748;2022-09-28T08:51:25;1.73;;;1.10;;
6626;SDS011;3349;49.830;8.748;2022-09-28T08:53:56;2.10;;;1.08;;
6626;SDS011;3349;49.830;8.748;2022-09-28T08:56:30;3.65;;;1.50;;
6626;SDS011;3349;49.830;8.748;2022-09-28T08:59:05;1.83;;;1.15;;
6626;SDS011;3349;49.830;8.748;2022-09-28T09:01:37;2.92;;;1.40;;
6626;SDS011;3349;49.830;8.748;2022-09-28T09:04:09;3.13;;;1.48;;
6626;SDS011;3349;49.830;8.748;2022-09-28T09:06:41;2.35;;;1.30;;
6626;SDS011;3349;49.830;8.748;2022-09-28T09:09:19;4.38;;;1.42;;
6626;SDS011;3349;49.830;8.748;2022-09-28T09:11:52;1.95;;;1.20;;
6626;SDS011;3349;49.830;8.748;2022-09-28T09:17:43;2.85;;;1.30;;
6626;SDS011;3349;49.830;8.748;2022-09-28T09:20:23;2.47;;;1.20;;
6626;SDS011;3349;49.830;8.748;2022-09-28T09:22:57;2.13;;;1.65;;
6626;SDS011;3349;49.830;8.748;2022-09-28T09:25:26;2.97;;;1.65;;
6626;SDS011;3349;49.830;8.748;2022-09-28T09:28:02;3.30;;;1.60;;
6626;SDS011;3349;49.830;8.748;2022-09-28T09:30:58;2.75;;;1.40;;
6626;SDS011;3349;49.830;8.748;2022-09-28T09:33:43;7.78;;;1.70;;
6626;SDS011;3349;49.830;8.748;2022-09-28T09:36:26;3.17;;;1.70;;
6626;SDS011;3349;49.830;8.748;2022-09-28T09:39:08;3.08;;;1.75;;
6626;SDS011;3349;49.830;8.748;2022-09-28T09:41:49;1.95;;;1.20;;
6626;SDS011;3349;49.830;8.748;2022-09-28T09:47:28;2.38;;;1.30;;
6626;SDS011;3349;49.830;8.748;2022-09-28T09:49:59;2.55;;;1.20;;
6626;SDS011;3349;49.830;8.748;2022-09-28T09:52:31;1.75;;;1.30;;
6626;SDS011;3349;49.830;8.748;2022-09-28T09:55:04;3.45;;;1.33;;
6626;SDS011;3349;49.830;8.748;2022-09-28T09:57:40;2.40;;;1.30;;
6626;SDS011;3349;49.830;8.748;2022-09-28T10:00:12;3.33;;;1.70;;
6626;SDS011;3349;49.830;8.748;2022-09-28T10:02:41;2.45;;;1.42;;
6626;SDS011;3349;49.830;8.748;2022-09-28T10:05:15;2.13;;;1.15;;
6626;SDS011;3349;49.830;8.748;2022-09-28T10:07:48;4.25;;;1.30;;
6626;SDS011;3349;49.830;8.748;2022-09-28T10:10:19;3.25;;;1.40;;
6626;SDS011;3349;49.830;8.748;2022-09-28T10:12:50;2.00;;;1.30;;
6626;SDS011;3349;49.830;8.748;2022-09-28T10:15:19;2.60;;;1.38;;
6626;SDS011;3349;49.830;8.748;2022-09-28T10:17:49;3.20;;;1.50;;
6626;SDS011;3349;49.830;8.748;2022-09-28T10:20:17;2.55;;;1.70;;
6626;SDS011;3349;49.830;8.748;2022-09-28T10:22:44;1.48;;;1.38;;
6626;SDS011;3349;49.830;8.748;2022-09-28T10:25:11;2.33;;;1.52;;
6626;SDS011;3349;49.830;8.748;2022-09-28T10:27:40;2.63;;;1.52;;
6626;SDS011;3349;49.830;8.748;2022-09-28T10:30:13;2.55;;;1.50;;
6626;SDS011;3349;49.830;8.748;2022-09-28T10:32:43;1.85;;;1.40;;
6626;SDS011;3349;49.830;8.748;2022-09-28T10:35:16;3.22;;;1.42;;
6626;SDS011;3349;49.830;8.748;2022-09-28T10:37:51;2.00;;;1.58;;
6626;SDS011;3349;49.830;8.748;2022-09-28T10:40:25;1.77;;;1.13;;
6626;SDS011;3349;49.830;8.748;2022-09-28T10:43:01;2.67;;;1.80;;
6626;SDS011;3349;49.830;8.748;2022-09-28T10:45:31;2.67;;;1.98;;
6626;SDS011;3349;49.830;8.748;2022-09-28T10:48:03;2.78;;;1.92;;
6626;SDS011;3349;49.830;8.748;2022-09-28T10:50:39;2.47;;;1.70;;
6626;SDS011;3349;49.830;8.748;2022-09-28T10:53:11;2.80;;;2.00;;
6626;SDS011;3349;49.830;8.748;2022-09-28T10:55:47;4.05;;;1.77;;
6626;SDS011;3349;49.830;8.748;2022-09-28T10:58:24;1.58;;;1.02;;
6626;SDS011;3349;49.830;8.748;2022-09-28T11:00:56;1.45;;;1.35;;
6626;SDS011;3349;49.830;8.748;2022-09-28T11:03:27;2.45;;;1.35;;
6626;SDS011;3349;49.830;8.748;2022-09-28T11:05:57;2.90;;;1.00;;
6626;SDS011;3349;49.830;8.748;2022-09-28T11:08:27;3.78;;;1.00;;
6626;SDS011;3349;49.830;8.748;2022-09-28T11:11:00;1.88;;;1.10;;
6626;SDS011;3349;49.830;8.748;2022-09-28T11:13:36;2.28;;;1.27;;
6626;SDS011;3349;49.830;8.748;2022-09-28T11:16:16;1.77;;;1.17;;
6626;SDS011;3349;49.830;8.748;2022-09-28T11:18:45;1.55;;;1.10;;
6626;SDS011;3349;49.830;8.748;2022-09-28T11:21:14;3.33;;;1.50;;
6626;SDS011;3349;49.830;8.748;2022-09-28T11:23:53;4.43;;;1.00;;
6626;SDS011;3349;49.830;8.748;2022-09-28T11:26:22;2.35;;;1.10;;
6626;SDS011;3349;49.830;8.748;2022-09-28T11:28:49;2.35;;;1.30;;
6626;SDS011;3349;49.830;8.748;2022-09-28T11:31:21;1.85;;;1.17;;
6626;SDS011;3349;49.830;8.748;2022-09-28T11:33:59;2.45;;;1.20;;
6626;SDS011;3349;49.830;8.748;2022-09-28T11:36:33;1.85;;;1.00;;
6626;SDS011;3349;49.830;8.748;2022-09-28T11:39:21;1.45;;;1.10;;
6626;SDS011;3349;49.830;8.748;2022-09-28T11:42:00;2.17;;;1.30;;
6626;SDS011;3349;49.830;8.748;2022-09-28T11:44:36;5.82;;;1.50;;
6626;SDS011;3349;49.830;8.748;2022-09-28T11:47:24;1.42;;;1.30;;
6626;SDS011;3349;49.830;8.748;2022-09-28T11:50:03;3.67;;;1.42;;
6626;SDS011;3349;49.830;8.748;2022-09-28T11:52:42;1.23;;;1.13;;
6626;SDS011;3349;49.830;8.748;2022-09-28T11:55:16;2.15;;;1.30;;
6626;SDS011;3349;49.830;8.748;2022-09-28T11:57:51;2.03;;;1.20;;
6626;SDS011;3349;49.830;8.748;2022-09-28T12:00:25;1.65;;;1.20;;
6626;SDS011;3349;49.830;8.748;2022-09-28T12:02:54;4.00;;;1.20;;
6626;SDS011;3349;49.830;8.748;2022-09-28T12:05:26;2.03;;;1.40;;
6626;SDS011;3349;49.830;8.748;2022-09-28T12:07:57;2.28;;;1.55;;
6626;SDS011;3349;49.830;8.748;2022-09-28T12:10:31;1.95;;;1.40;;
6626;SDS011;3349;49.830;8.748;2022-09-28T12:13:02;7.20;;;1.42;;
6626;SDS011;3349;49.830;8.748;2022-09-28T12:15:39;2.10;;;1.35;;
6626;SDS011;3349;49.830;8.748;2022-09-28T12:18:10;1.63;;;1.30;;
6626;SDS011;3349;49.830;8.748;2022-09-28T12:20:45;2.13;;;1.27;;
6626;SDS011;3349;49.830;8.748;2022-09-28T12:23:19;1.27;;;1.15;;
6626;SDS011;3349;49.830;8.748;2022-09-28T12:25:54;1.70;;;1.10;;
6626;SDS011;3349;49.830;8.748;2022-09-28T12:28:26;1.60;;;1.30;;
6626;SDS011;3349;49.830;8.748;2022-09-28T12:31:03;2.83;;;1.52;;
6626;SDS011;3349;49.830;8.748;2022-09-28T12:33:37;1.95;;;1.50;;
6626;SDS011;3349;49.830;8.748;2022-09-28T12:36:08;2.58;;;1.48;;
6626;SDS011;3349;49.830;8.748;2022-09-28T12:38:55;2.75;;;1.23;;
6626;SDS011;3349;49.830;8.748;2022-09-28T12:41:37;1.88;;;1.30;;
6626;SDS011;3349;49.830;8.748;2022-09-28T12:44:23;1.23;;;1.13;;
6626;SDS011;3349;49.830;8.748;2022-09-28T12:47:02;3.67;;;1.30;;
6626;SDS011;3349;49.830;8.748;2022-09-28T12:49:50;1.88;;;1.35;;
6626;SDS011;3349;49.830;8.748;2022-09-28T12:52:32;2.45;;;1.27;;
6626;SDS011;3349;49.830;8.748;2022-09-28T12:55:18;5.63;;;1.60;;
6626;SDS011;3349;49.830;8.748;2022-09-28T12:57:57;4.32;;;1.30;;
6626;SDS011;3349;49.830;8.748;2022-09-28T13:00:30;2.33;;;1.48;;
6626;SDS011;3349;49.830;8.748;2022-09-28T13:03:18;1.67;;;1.10;;
6626;SDS011;3349;49.830;8.748;2022-09-28T13:06:30;1.67;;;1.10;;
6626;SDS011;3349;49.830;8.748;2022-09-28T13:09:17;4.53;;;1.50;;
6626;SDS011;3349;49.830;8.748;2022-09-28T13:11:50;1.20;;;1.10;;
6626;SDS011;3349;49.830;8.748;2022-09-28T13:14:34;2.53;;;1.23;;
6626;SDS011;3349;49.830;8.748;2022-09-28T13:17:18;1.20;;;1.00;;
6626;SDS011;3349;49.830;8.748;2022-09-28T13:19:54;3.10;;;1.38;;
6626;SDS011;3349;49.830;8.748;2022-09-28T13:22:26;1.63;;;1.20;;
6626;SDS011;3349;49.830;8.748;2022-09-28T13:25:00;3.10;;;1.10;;
6626;SDS011;3349;49.830;8.748;2022-09-28T13:27:32;1.75;;;1.27;;
6626;SDS011;3349;49.830;8.748;2022-09-28T13:30:02;1.77;;;1.20;;
6626;SDS011;3349;49.830;8.748;2022-09-28T13:32:31;2.55;;;1.20;;
6626;SDS011;3349;49.830;8.748;2022-09-28T13:35:00;1.27;;;1.17;;
6626;SDS011;3349;49.830;8.748;2022-09-28T13:37:28;1.30;;;1.10;;
6626;SDS011;3349;49.830;8.748;2022-09-28T13:39:54;2.75;;;1.58;;
6626;SDS011;3349;49.830;8.748;2022-09-28T13:42:24;3.25;;;1.33;;
6626;SDS011;3349;49.830;8.748;2022-09-28T13:45:32;2.08;;;1.38;;
6626;SDS011;3349;49.830;8.748;2022-09-28T13:48:13;3.60;;;1.42;;
6626;SDS011;3349;49.830;8.748;2022-09-28T13:50:46;1.67;;;1.30;;
6626;SDS011;3349;49.830;8.748;2022-09-28T13:53:30;3.78;;;1.55;;
6626;SDS011;3349;49.830;8.748;2022-09-28T13:56:12;2.28;;;1.20;;
6626;SDS011;3349;49.830;8.748;2022-09-28T13:58:53;3.55;;;1.35;;
6626;SDS011;3349;49.830;8.748;2022-09-28T14:01:25;2.90;;;1.25;;
6626;SDS011;3349;49.830;8.748;2022-09-28T14:04:08;3.13;;;1.33;;
6626;SDS011;3349;49.830;8.748;2022-09-28T14:06:41;2.58;;;1.30;;
6626;SDS011;3349;49.830;8.748;2022-09-28T14:09:24;2.35;;;1.20;;
6626;SDS011;3349;49.830;8.748;2022-09-28T14:12:15;1.45;;;1.20;;
6626;SDS011;3349;49.830;8.748;2022-09-28T14:14:54;1.35;;;1.00;;
6626;SDS011;3349;49.830;8.748;2022-09-28T14:20:22;2.03;;;1.45;;
6626;SDS011;3349;49.830;8.748;2022-09-28T14:22:57;2.42;;;1.20;;
6626;SDS011;3349;49.830;8.748;2022-09-28T14:25:44;1.67;;;1.25;;
6626;SDS011;3349;49.830;8.748;2022-09-28T14:28:30;1.75;;;1.25;;
6626;SDS011;3349;49.830;8.748;2022-09-28T14:31:13;2.13;;;1.30;;
6626;SDS011;3349;49.830;8.748;2022-09-28T14:33:52;2.80;;;1.33;;
6626;SDS011;3349;49.830;8.748;2022-09-28T14:36:22;3.13;;;1.50;;
6626;SDS011;3349;49.830;8.748;2022-09-28T14:39:15;2.20;;;1.27;;
6626;SDS011;3349;49.830;8.748;2022-09-28T14:42:11;3.40;;;1.25;;
6626;SDS011;3349;49.830;8.748;2022-09-28T14:50:37;2.15;;;1.38;;
6626;SDS011;3349;49.830;8.748;2022-09-28T14:53:04;2.55;;;1.33;;
6626;SDS011;3349;49.830;8.748;2022-09-28T14:55:37;1.80;;;1.38;;
6626;SDS011;3349;49.830;8.748;2022-09-28T14:58:14;1.92;;;1.33;;
6626;SDS011;3349;49.830;8.748;2022-09-28T15:00:46;1.33;;;1.17;;
6626;SDS011;3349;49.830;8.748;2022-09-28T15:03:18;3.65;;;1.30;;
6626;SDS011;3349;49.830;8.748;2022-09-28T15:05:47;2.13;;;1.35;;
6626;SDS011;3349;49.830;8.748;2022-09-28T15:08:14;2.67;;;1.38;;
6626;SDS011;3349;49.830;8.748;2022-09-28T15:10:44;3.03;;;2.00;;
6626;SDS011;3349;49.830;8.748;2022-09-28T15:13:15;1.80;;;1.30;;
6626;SDS011;3349;49.830;8.748;2022-09-28T15:15:45;1.52;;;1.15;;
6626;SDS011;3349;49.830;8.748;2022-09-28T15:21:20;5.05;;;1.40;;
6626;SDS011;3349;49.830;8.748;2022-09-28T15:23:48;2.55;;;1.60;;
6626;SDS011;3349;49.830;8.748;2022-09-28T15:26:22;1.83;;;1.40;;
6626;SDS011;3349;49.830;8.748;2022-09-28T15:28:51;3.20;;;1.33;;
6626;SDS011;3349;49.830;8.748;2022-09-28T15:31:19;1.77;;;1.20;;
6626;SDS011;3349;49.830;8.748;2022-09-28T15:33:47;2.05;;;1.60;;
6626;SDS011;3349;49.830;8.748;2022-09-28T15:36:33;2.60;;;1.60;;
6626;SDS011;3349;49.830;8.748;2022-09-28T15:39:04;2.65;;;1.27;;
6626;SDS011;3349;49.830;8.748;2022-09-28T15:41:37;1.83;;;1.13;;
6626;SDS011;3349;49.830;8.748;2022-09-28T15:44:06;1.55;;;1.23;;
6626;SDS011;3349;49.830;8.748;2022-09-28T15:47:06;3.33;;;1.50;;
6626;SDS011;3349;49.830;8.748;2022-09-28T15:49:42;2.40;;;1.48;;
6626;SDS011;3349;49.830;8.748;2022-09-28T15:52:22;1.65;;;1.50;;
6626;SDS011;3349;49.830;8.748;2022-09-28T15:54:52;7.03;;;6.32;;
6626;SDS011;3349;49.830;8.748;2022-09-28T15:57:27;3.53;;;2.65;;
6626;SDS011;3349;49.830;8.748;2022-09-28T16:00:03;2.75;;;1.30;;
6626;SDS011;3349;49.830;8.748;2022-09-28T16:02:32;2.08;;;1.33;;
6626;SDS011;3349;49.830;8.748;2022-09-28T16:05:00;2.55;;;1.40;;
6626;SDS011;3349;49.830;8.748;2022-09-28T16:07:36;1.27;;;1.10;;